Time;durP1;ratioP1;P1;durP2;ratioP2;P2;SDS_P1;SDS_P2;PMS_P1;PMS_P2;Temp;Humidity;BMP_temperature;BMP_pressure;BME280_temperature;BME280_humidity;BME280_pressure;Samples;Min_cycle;Max_cycle;Signal;HPM_P1;HPM_P2
2022/06/23 00:00:49;;;;;;;0.23;0.17;;;18.20;99.90;;;;;;5025249;28;20207;-56
2022/06/23 00:03:21;;;;;;;0.30;0.20;;;18.20;99.90;;;;;;5015492;28;20287;-56
2022/06/23 00:05:54;;;;;;;0.23;0.20;;;18.10;99.90;;;;;;5022689;28;20720;-56
2022/06/23 00:08:21;;;;;;;0.77;0.20;;;18.10;99.90;;;;;;5017061;28;20258;-56
2022/06/23 00:10:54;;;;;;;0.40;0.27;;;18.10;99.90;;;;;;5012014;28;20285;-55
2022/06/23 00:13:32;;;;;;;1.80;0.30;;;18.00;99.90;;;;;;5015863;28;20241;-56
2022/06/23 00:15:59;;;;;;;2.00;0.30;;;18.00;99.90;;;;;;5011476;28;20203;-56
2022/06/23 00:18:28;;;;;;;0.40;0.40;;;18.00;99.90;;;;;;5025901;28;20223;-55
2022/06/23 00:20:58;;;;;;;2.60;0.20;;;18.00;99.90;;;;;;5013414;28;20211;-55
2022/06/23 00:23:29;;;;;;;2.07;0.50;;;18.00;99.90;;;;;;5016371;28;20210;-56
2022/06/23 00:26:04;;;;;;;2.67;0.60;;;18.00;99.90;;;;;;5012209;28;20227;-56
2022/06/23 00:28:41;;;;;;;2.60;1.23;;;18.00;99.90;;;;;;5019393;28;20724;-56
2022/06/23 00:31:26;;;;;;;1.90;0.43;;;17.90;99.90;;;;;;5021835;28;20214;-55
2022/06/23 00:33:54;;;;;;;0.50;0.50;;;17.90;99.90;;;;;;5029462;28;20194;-56
2022/06/23 00:36:31;;;;;;;0.40;0.30;;;17.80;99.90;;;;;;5031680;28;20620;-55
2022/06/23 00:38:58;;;;;;;2.80;0.60;;;17.70;99.90;;;;;;5023685;28;20337;-55
2022/06/23 00:41:31;;;;;;;2.00;0.23;;;17.70;99.90;;;;;;5017881;28;20265;-56
2022/06/23 00:44:04;;;;;;;2.33;0.40;;;17.70;99.90;;;;;;5030300;28;20352;-55
2022/06/23 00:46:36;;;;;;;2.43;0.50;;;17.70;99.90;;;;;;5031716;28;20719;-55
2022/06/23 00:49:14;;;;;;;1.20;0.40;;;17.60;99.90;;;;;;5031562;28;20207;-56
2022/06/23 00:51:45;;;;;;;1.27;0.30;;;17.60;99.90;;;;;;5013733;28;20295;-56
2022/06/23 00:54:18;;;;;;;1.10;0.73;;;17.50;99.90;;;;;;5006439;28;20256;-55
2022/06/23 00:56:52;;;;;;;1.23;0.30;;;17.50;99.90;;;;;;5016848;28;20219;-55
2022/06/23 00:59:22;;;;;;;0.40;0.40;;;17.40;99.90;;;;;;5012343;28;20246;-55
2022/06/23 01:01:57;;;;;;;4.20;1.17;;;17.40;99.90;;;;;;5009919;28;20207;-56
2022/06/23 01:04:31;;;;;;;3.30;0.70;;;17.40;99.90;;;;;;5007973;28;20688;-56
2022/06/23 01:07:02;;;;;;;3.00;0.50;;;17.50;99.90;;;;;;5011506;28;20632;-56
2022/06/23 01:09:35;;;;;;;0.80;0.37;;;17.40;99.90;;;;;;5020272;28;20195;-55
2022/06/23 01:12:13;;;;;;;1.20;0.40;;;17.40;99.90;;;;;;5021372;28;20227;-56
2022/06/23 01:14:47;;;;;;;0.60;0.20;;;17.40;99.90;;;;;;5031220;28;20202;-56
2022/06/23 01:17:19;;;;;;;0.40;0.40;;;17.40;99.90;;;;;;5023004;28;20656;-56
2022/06/23 01:20:04;;;;;;;3.70;1.07;;;17.50;99.90;;;;;;5018067;28;20742;-56
2022/06/23 01:22:47;;;;;;;1.90;1.40;;;17.40;99.90;;;;;;5022051;28;20672;-55
2022/06/23 01:25:34;;;;;;;0.77;0.60;;;17.40;99.90;;;;;;5030881;28;20219;-56
2022/06/23 01:28:05;;;;;;;0.97;0.20;;;17.40;99.90;;;;;;5027445;28;20261;-56
2022/06/23 01:30:36;;;;;;;0.80;0.43;;;17.40;99.90;;;;;;5016050;28;20214;-55
2022/06/23 01:33:16;;;;;;;0.93;0.67;;;17.40;99.90;;;;;;5019566;28;20235;-56
2022/06/23 01:35:48;;;;;;;4.33;0.53;;;17.40;99.90;;;;;;5011246;28;20202;-56
2022/06/23 01:38:38;;;;;;;0.40;0.40;;;17.40;99.90;;;;;;5011188;28;20277;-56
2022/06/23 01:41:13;;;;;;;0.63;0.50;;;17.40;99.90;;;;;;5009652;28;20203;-55
2022/06/23 01:43:52;;;;;;;1.00;0.67;;;17.30;99.90;;;;;;5010549;28;20253;-56
2022/06/23 01:46:26;;;;;;;4.17;1.63;;;17.30;99.90;;;;;;5012446;28;20409;-56
2022/06/23 01:48:57;;;;;;;0.30;0.20;;;17.30;99.90;;;;;;5011443;28;20199;-55
2022/06/23 01:51:29;;;;;;;1.03;0.73;;;17.30;99.90;;;;;;5007630;28;20206;-55
2022/06/23 01:54:09;;;;;;;1.70;0.30;;;17.30;99.90;;;;;;5009678;28;20200;-55
2022/06/23 01:56:49;;;;;;;2.40;0.53;;;17.30;99.90;;;;;;5022173;28;20620;-55
2022/06/23 01:59:42;;;;;;;1.93;0.30;;;17.30;99.90;;;;;;5025874;28;20207;-56
2022/06/23 02:02:27;;;;;;;1.60;0.37;;;17.30;99.90;;;;;;5017078;28;20203;-55
2022/06/23 02:05:01;;;;;;;1.27;0.33;;;17.30;99.90;;;;;;5028473;28;20207;-55
2022/06/23 02:07:35;;;;;;;2.30;0.40;;;17.30;99.90;;;;;;5020039;28;20229;-56
2022/06/23 02:10:09;;;;;;;1.20;0.20;;;17.30;99.90;;;;;;5013714;28;20202;-56
2022/06/23 02:12:45;;;;;;;0.43;0.20;;;17.30;99.90;;;;;;5021636;28;20198;-55
2022/06/23 02:15:18;;;;;;;0.40;0.30;;;17.20;99.90;;;;;;5020855;28;20637;-55
2022/06/23 02:17:50;;;;;;;1.40;0.30;;;17.20;99.90;;;;;;5017903;28;20223;-55
2022/06/23 02:20:27;;;;;;;0.87;0.40;;;17.20;99.90;;;;;;5017787;28;20203;-55
2022/06/23 02:23:06;;;;;;;0.70;0.30;;;17.10;99.90;;;;;;5023356;28;20198;-56
2022/06/23 02:25:37;;;;;;;1.77;0.33;;;17.10;99.90;;;;;;5034377;28;20272;-55
2022/06/23 02:28:13;;;;;;;2.03;1.03;;;17.10;99.90;;;;;;5033923;28;20657;-55
2022/06/23 02:30:44;;;;;;;5.93;0.77;;;17.10;99.90;;;;;;5018832;28;20261;-55
2022/06/23 02:33:24;;;;;;;1.80;0.50;;;17.00;99.90;;;;;;5015504;28;20210;-55
2022/06/23 02:35:59;;;;;;;1.47;0.40;;;17.00;99.90;;;;;;5016626;28;20257;-55
2022/06/23 02:38:31;;;;;;;1.37;0.40;;;17.00;99.90;;;;;;5012167;28;20276;-55
2022/06/23 02:41:08;;;;;;;1.70;0.50;;;17.00;99.90;;;;;;5019486;28;20377;-55
2022/06/23 02:43:39;;;;;;;1.97;0.50;;;17.00;99.90;;;;;;5021538;28;20202;-55
2022/06/23 02:46:41;;;;;;;0.47;0.47;;;17.10;99.90;;;;;;5015400;28;20638;-55
2022/06/23 02:49:33;;;;;;;0.70;0.40;;;17.00;99.90;;;;;;5016175;28;20261;-55
2022/06/23 02:52:45;;;;;;;0.83;0.40;;;17.00;99.90;;;;;;5014162;28;20203;-55
2022/06/23 02:55:37;;;;;;;2.90;0.63;;;17.00;99.90;;;;;;5008782;28;20202;-56
2022/06/23 02:58:09;;;;;;;2.87;0.30;;;16.90;99.90;;;;;;5016871;28;20281;-56
2022/06/23 03:00:43;;;;;;;0.47;0.40;;;16.80;99.90;;;;;;5020008;28;20261;-56
2022/06/23 03:03:17;;;;;;;1.00;0.50;;;16.80;99.90;;;;;;5012644;28;20206;-55
2022/06/23 03:05:49;;;;;;;2.23;0.50;;;16.80;99.90;;;;;;5021786;28;20326;-55
2022/06/23 03:08:28;;;;;;;2.93;0.60;;;16.80;99.90;;;;;;5033292;28;20269;-55
2022/06/23 03:10:58;;;;;;;2.73;1.70;;;16.80;99.90;;;;;;5014302;28;20207;-55
2022/06/23 03:13:36;;;;;;;2.53;0.80;;;16.70;99.90;;;;;;5012679;28;20201;-56
2022/06/23 03:16:12;;;;;;;2.10;0.53;;;16.70;99.90;;;;;;5013687;28;20199;-55
2022/06/23 03:18:47;;;;;;;1.13;0.50;;;16.70;99.90;;;;;;5012600;28;20273;-55
2022/06/23 03:21:21;;;;;;;0.77;0.60;;;16.70;99.90;;;;;;5009570;28;20199;-56
2022/06/23 03:23:52;;;;;;;1.17;0.50;;;16.70;99.90;;;;;;5021707;28;20210;-55
2022/06/23 03:26:26;;;;;;;4.07;0.90;;;16.80;99.90;;;;;;5013072;28;20227;-56
2022/06/23 03:28:57;;;;;;;0.37;0.37;;;16.80;99.90;;;;;;5020635;28;20199;-56
2022/06/23 03:31:30;;;;;;;1.40;0.50;;;16.80;99.90;;;;;;5012644;28;20298;-55
2022/06/23 03:34:04;;;;;;;1.33;0.60;;;16.80;99.90;;;;;;5021191;28;20253;-56
2022/06/23 03:36:35;;;;;;;2.97;0.70;;;16.80;99.90;;;;;;5019953;28;20830;-55
2022/06/23 03:42:09;;;;;;;1.60;0.50;;;16.80;99.90;;;;;;5019598;28;20225;-55
2022/06/23 03:44:48;;;;;;;2.23;0.73;;;16.80;99.90;;;;;;5028133;28;20206;-56
2022/06/23 03:47:21;;;;;;;1.33;0.37;;;16.80;99.90;;;;;;5025290;28;20727;-55
2022/06/23 03:49:53;;;;;;;0.73;0.40;;;16.80;99.90;;;;;;5019892;28;20229;-55
2022/06/23 03:52:30;;;;;;;3.00;0.37;;;16.80;99.90;;;;;;5010201;28;20581;-55
2022/06/23 03:55:02;;;;;;;1.10;0.97;;;16.80;99.90;;;;;;5019827;28;20194;-55
2022/06/23 03:57:33;;;;;;;2.57;0.40;;;16.80;99.90;;;;;;5014457;28;20219;-55
2022/06/23 04:00:19;;;;;;;1.50;0.60;;;16.80;99.90;;;;;;5011407;28;20199;-55
2022/06/23 04:02:49;;;;;;;2.07;1.20;;;16.80;99.90;;;;;;5016265;28;20673;-55
2022/06/23 04:05:23;;;;;;;1.53;1.03;;;16.80;99.90;;;;;;4994392;28;20208;-55
2022/06/23 04:07:54;;;;;;;0.30;0.30;;;16.80;99.90;;;;;;5007558;28;20239;-55
2022/06/23 04:10:27;;;;;;;2.83;0.60;;;16.80;99.90;;;;;;5005154;28;20211;-55
2022/06/23 04:12:58;;;;;;;1.23;0.40;;;16.90;99.90;;;;;;5013815;28;20211;-55
2022/06/23 04:15:29;;;;;;;1.00;0.60;;;16.90;99.90;;;;;;5008144;28;20206;-55
2022/06/23 04:18:01;;;;;;;5.17;1.80;;;16.90;99.90;;;;;;5006189;28;20281;-55
2022/06/23 04:20:38;;;;;;;0.80;0.80;;;16.90;99.90;;;;;;5013863;28;20214;-55
2022/06/23 04:23:14;;;;;;;3.40;0.40;;;16.90;99.90;;;;;;5008975;28;20225;-56
2022/06/23 04:25:47;;;;;;;2.00;0.40;;;16.90;99.90;;;;;;5006828;28;20217;-55
2022/06/23 04:28:24;;;;;;;0.57;0.30;;;17.00;99.90;;;;;;4992792;28;20281;-55
2022/06/23 04:30:53;;;;;;;2.13;0.70;;;17.10;99.90;;;;;;4995347;28;20210;-56
2022/06/23 04:33:24;;;;;;;0.70;0.50;;;17.20;99.90;;;;;;5005735;28;20204;-55
2022/06/23 04:35:56;;;;;;;2.00;0.60;;;17.20;99.90;;;;;;5008261;28;20192;-56
2022/06/23 04:38:31;;;;;;;2.23;0.50;;;17.30;99.90;;;;;;5010080;28;20314;-55
2022/06/23 04:41:04;;;;;;;3.23;0.70;;;17.50;99.90;;;;;;5002179;28;20226;-55
2022/06/23 04:43:40;;;;;;;1.53;0.50;;;17.60;99.90;;;;;;5005443;28;20253;-56
2022/06/23 04:46:10;;;;;;;2.17;0.77;;;17.70;99.90;;;;;;5010083;28;20233;-55
2022/06/23 04:48:47;;;;;;;1.73;0.77;;;17.80;99.90;;;;;;4993263;28;20219;-55
2022/06/23 04:51:26;;;;;;;1.00;0.40;;;17.90;99.90;;;;;;5008959;28;20203;-55
2022/06/23 04:53:58;;;;;;;0.90;0.50;;;17.90;99.90;;;;;;5011625;28;20257;-55
2022/06/23 04:56:34;;;;;;;1.47;0.93;;;18.10;99.90;;;;;;4997169;28;20254;-55
2022/06/23 04:59:08;;;;;;;4.20;0.50;;;18.20;99.90;;;;;;5012250;28;20209;-56
2022/06/23 05:01:41;;;;;;;1.13;1.13;;;18.30;99.90;;;;;;5008486;28;20330;-55
2022/06/23 05:04:18;;;;;;;2.00;0.40;;;18.40;99.90;;;;;;5016518;28;20261;-56
2022/06/23 05:06:49;;;;;;;2.20;0.60;;;18.60;99.90;;;;;;5010066;28;20651;-56
2022/06/23 05:09:24;;;;;;;1.43;0.60;;;18.80;99.90;;;;;;5009712;28;20700;-55
2022/06/23 05:11:54;;;;;;;1.63;0.50;;;19.10;99.90;;;;;;5007305;28;20619;-55
2022/06/23 05:14:26;;;;;;;3.30;0.70;;;19.70;99.90;;;;;;5019453;28;20353;-55
2022/06/23 05:17:01;;;;;;;5.47;0.60;;;20.50;99.90;;;;;;5007309;28;20269;-55
2022/06/23 05:19:32;;;;;;;1.52;0.40;;;21.30;99.90;;;;;;5002435;28;20486;-55
2022/06/23 05:22:08;;;;;;;0.83;0.50;;;22.00;99.90;;;;;;5009785;28;20203;-55
2022/06/23 05:24:40;;;;;;;2.83;0.70;;;22.90;99.90;;;;;;5001633;28;20203;-56
2022/06/23 05:27:14;;;;;;;1.83;0.70;;;23.60;99.90;;;;;;5006171;28;20222;-56
2022/06/23 05:29:49;;;;;;;0.90;0.80;;;23.80;99.90;;;;;;5016214;28;20199;-55
2022/06/23 05:32:25;;;;;;;2.00;0.40;;;24.20;99.90;;;;;;5030631;23;20233;-50
2022/06/23 05:34:59;;;;;;;1.73;1.00;;;24.60;99.90;;;;;;5006739;28;20253;-51
2022/06/23 05:37:33;;;;;;;0.50;0.40;;;24.70;99.90;;;;;;5006754;28;20275;-50
2022/06/23 05:40:13;;;;;;;0.60;0.60;;;25.20;99.90;;;;;;5009789;28;20254;-50
2022/06/23 05:42:44;;;;;;;0.63;0.30;;;25.30;99.90;;;;;;5008812;28;20243;-50
2022/06/23 05:45:18;;;;;;;2.27;0.37;;;25.70;99.90;;;;;;5008156;28;20211;-50
2022/06/23 05:47:46;;;;;;;2.57;0.40;;;26.20;99.90;;;;;;5002150;28;20709;-51
2022/06/23 05:50:20;;;;;;;1.87;0.60;;;26.20;99.90;;;;;;4993679;28;20258;-51
2022/06/23 05:52:55;;;;;;;1.67;0.40;;;26.40;99.90;;;;;;5011860;28;20203;-51
2022/06/23 05:55:33;;;;;;;0.73;0.30;;;26.30;99.90;;;;;;5001887;28;20199;-51
2022/06/23 05:58:11;;;;;;;0.52;0.30;;;26.70;99.90;;;;;;5006166;28;20199;-51
2022/06/23 06:00:46;;;;;;;0.43;0.40;;;27.00;99.90;;;;;;5005938;28;20200;-50
2022/06/23 06:03:20;;;;;;;0.93;0.50;;;27.30;99.90;;;;;;4999414;28;20207;-51
2022/06/23 06:05:49;;;;;;;1.00;0.40;;;27.60;99.90;;;;;;5006282;28;20236;-51
2022/06/23 06:08:21;;;;;;;1.35;0.73;;;27.90;99.90;;;;;;5008144;28;20767;-51
2022/06/23 06:10:50;;;;;;;3.38;0.40;;;28.40;99.90;;;;;;5007893;28;20215;-51
2022/06/23 06:13:20;;;;;;;0.40;0.40;;;28.40;99.90;;;;;;4999472;28;20204;-51
2022/06/23 06:15:51;;;;;;;1.00;0.40;;;27.70;99.90;;;;;;5006979;28;20535;-51
2022/06/23 06:18:24;;;;;;;2.95;0.70;;;27.20;99.90;;;;;;4999176;28;20192;-50
2022/06/23 06:20:53;;;;;;;0.70;0.40;;;27.30;99.90;;;;;;4998159;28;20273;-50
2022/06/23 06:23:31;;;;;;;1.00;0.50;;;27.80;99.90;;;;;;5007931;28;20207;-50
2022/06/23 06:25:58;;;;;;;1.13;0.38;;;28.00;99.90;;;;;;5009514;28;20206;-51
2022/06/23 06:28:31;;;;;;;1.83;0.35;;;27.90;99.90;;;;;;5002402;28;20302;-50
2022/06/23 06:31:03;;;;;;;1.13;0.40;;;28.30;99.90;;;;;;4996596;28;20254;-50
2022/06/23 06:33:41;;;;;;;1.20;0.55;;;28.30;99.90;;;;;;4999161;28;20599;-50
2022/06/23 06:36:32;;;;;;;4.18;0.45;;;27.80;99.90;;;;;;4999877;28;20253;-50
2022/06/23 06:39:10;;;;;;;0.30;0.30;;;28.50;99.90;;;;;;5006760;28;20207;-50
2022/06/23 06:41:38;;;;;;;1.45;0.40;;;29.00;99.90;;;;;;5000754;28;20223;-50
2022/06/23 06:44:06;;;;;;;0.77;0.30;;;29.10;99.90;;;;;;5007321;28;20285;-50
2022/06/23 06:46:35;;;;;;;1.85;0.40;;;29.50;99.90;;;;;;4999055;28;20286;-50
2022/06/23 06:49:02;;;;;;;3.97;0.38;;;29.70;99.90;;;;;;4998115;28;20202;-50
2022/06/23 06:51:30;;;;;;;2.55;0.50;;;29.30;99.90;;;;;;5002492;28;20223;-50
2022/06/23 06:54:03;;;;;;;1.15;0.40;;;29.30;99.90;;;;;;4998225;28;20220;-50
2022/06/23 06:56:40;;;;;;;4.18;0.60;;;29.40;99.90;;;;;;5008980;28;20625;-50
2022/06/23 06:59:15;;;;;;;0.85;0.30;;;29.80;99.90;;;;;;5016573;28;20202;-50
2022/06/23 07:01:45;;;;;;;1.50;0.70;;;29.60;99.90;;;;;;5024331;28;20719;-50
2022/06/23 07:04:25;;;;;;;1.17;0.50;;;30.00;99.90;;;;;;5007970;28;20689;-50
2022/06/23 07:06:57;;;;;;;0.63;0.50;;;29.50;99.90;;;;;;5021342;28;20222;-50
2022/06/23 07:09:31;;;;;;;0.25;0.25;;;30.00;99.90;;;;;;5028080;28;20202;-50
2022/06/23 07:12:05;;;;;;;1.67;0.40;;;30.50;99.90;;;;;;5033370;28;20226;-50
2022/06/23 07:14:39;;;;;;;3.03;0.40;;;30.70;99.90;;;;;;5033901;28;20198;-50
2022/06/23 07:17:14;;;;;;;1.80;0.20;;;31.00;99.90;;;;;;5020774;28;20657;-51
2022/06/23 07:19:47;;;;;;;0.35;0.30;;;31.30;99.90;;;;;;5019352;28;20617;-50
2022/06/23 07:22:19;;;;;;;2.35;0.40;;;31.30;99.90;;;;;;5018301;28;20250;-51
2022/06/23 07:24:53;;;;;;;0.40;0.40;;;31.80;99.90;;;;;;5009478;28;20203;-51
2022/06/23 07:27:26;;;;;;;2.95;0.55;;;31.90;99.90;;;;;;5015961;28;20223;-51
2022/06/23 07:29:59;;;;;;;5.10;0.60;;;31.80;99.90;;;;;;5020930;28;20199;-51
2022/06/23 07:32:42;;;;;;;1.50;0.40;;;32.10;99.90;;;;;;5023474;28;20233;-51
2022/06/23 07:35:23;;;;;;;1.55;0.43;;;31.50;99.90;;;;;;5022638;28;20207;-51
2022/06/23 07:37:58;;;;;;;4.65;0.50;;;32.20;99.90;;;;;;5009952;28;20253;-51
2022/06/23 07:40:27;;;;;;;3.70;0.50;;;31.80;99.90;;;;;;5027198;28;20202;-51
2022/06/23 07:43:04;;;;;;;1.00;0.40;;;31.90;99.90;;;;;;5023482;28;20559;-51
2022/06/23 07:45:36;;;;;;;0.55;0.43;;;32.10;99.90;;;;;;5025175;28;20202;-51
2022/06/23 07:48:03;;;;;;;1.60;0.60;;;32.80;99.90;;;;;;5020997;28;20250;-51
2022/06/23 07:50:30;;;;;;;3.63;0.40;;;32.40;99.90;;;;;;5019042;28;20199;-51
2022/06/23 07:52:59;;;;;;;1.52;0.30;;;32.60;99.90;;;;;;5013335;28;20738;-51
2022/06/23 07:55:29;;;;;;;1.15;0.50;;;31.70;99.90;;;;;;5007131;28;20262;-51
2022/06/23 07:57:57;;;;;;;0.88;0.20;;;31.10;99.90;;;;;;5010336;28;20662;-50
2022/06/23 08:00:26;;;;;;;2.65;0.85;;;31.50;99.90;;;;;;4996473;28;20219;-51
2022/06/23 08:03:00;;;;;;;0.35;0.35;;;31.20;99.90;;;;;;4996426;28;20199;-51
2022/06/23 08:05:34;;;;;;;0.20;0.20;;;31.30;99.90;;;;;;5013267;28;20665;-51
2022/06/23 08:08:02;;;;;;;0.22;0.22;;;31.10;99.90;;;;;;5012881;28;20223;-51
2022/06/23 08:10:32;;;;;;;0.57;0.30;;;31.30;99.90;;;;;;5018249;28;20202;-50
2022/06/23 08:13:06;;;;;;;1.67;0.40;;;31.50;99.90;;;;;;5016237;28;20203;-51
2022/06/23 08:18:30;;;;;;;1.67;0.55;;;31.20;99.90;;;;;;4982580;28;20195;-51
2022/06/23 08:21:04;;;;;;;0.30;0.30;;;31.70;99.90;;;;;;5012859;28;20272;-51
2022/06/23 08:23:38;;;;;;;4.05;0.80;;;31.80;99.90;;;;;;5012443;28;20707;-51
2022/06/23 08:26:08;;;;;;;1.95;0.52;;;31.70;99.90;;;;;;5000408;28;20293;-51
2022/06/23 08:28:36;;;;;;;0.25;0.20;;;32.00;99.90;;;;;;5024083;28;20593;-51
2022/06/23 08:31:05;;;;;;;2.05;0.40;;;32.40;99.90;;;;;;5026108;28;20231;-51
2022/06/23 08:33:33;;;;;;;0.65;0.35;;;31.70;99.90;;;;;;5024151;28;20676;-51
2022/06/23 08:36:08;;;;;;;1.65;0.20;;;32.40;99.90;;;;;;5032370;28;20199;-51
2022/06/23 08:38:45;;;;;;;0.35;0.22;;;32.80;99.90;;;;;;5014618;28;20680;-51
2022/06/23 08:41:25;;;;;;;1.58;0.40;;;32.90;99.90;;;;;;5011531;28;20266;-51
2022/06/23 08:44:00;;;;;;;0.82;0.30;;;32.70;99.90;;;;;;5019356;28;20210;-51
2022/06/23 08:46:34;;;;;;;0.95;0.93;;;33.10;99.40;;;;;;5026302;28;20687;-51
2022/06/23 08:49:08;;;;;;;0.55;0.35;;;33.60;97.50;;;;;;5028607;28;20585;-51
2022/06/23 08:51:46;;;;;;;0.60;0.30;;;33.40;99.50;;;;;;5011827;28;20636;-51
2022/06/23 08:54:18;;;;;;;0.98;0.30;;;33.70;97.30;;;;;;5012287;28;20293;-51
2022/06/23 08:56:52;;;;;;;0.65;0.20;;;33.70;99.10;;;;;;5012179;28;20211;-51
2022/06/23 08:59:29;;;;;;;0.30;0.30;;;33.50;99.40;;;;;;5015895;28;20290;-51
2022/06/23 09:02:05;;;;;;;1.25;0.40;;;33.20;98.10;;;;;;5022963;28;20221;-51
2022/06/23 09:04:43;;;;;;;0.50;0.40;;;33.70;97.40;;;;;;5025557;28;20614;-51
2022/06/23 09:07:20;;;;;;;1.25;1.00;;;33.80;94.70;;;;;;5010981;28;20228;-53
2022/06/23 09:09:52;;;;;;;1.25;0.75;;;34.40;97.60;;;;;;5014942;28;20202;-53
2022/06/23 09:12:26;;;;;;;0.50;0.40;;;33.90;95.40;;;;;;5005493;28;20273;-53
2022/06/23 09:15:26;;;;;;;2.40;0.32;;;33.80;96.40;;;;;;5008884;28;20623;-53
2022/06/23 09:18:31;;;;;;;0.75;0.73;;;34.10;97.40;;;;;;5018016;28;20198;-53
2022/06/23 09:21:11;;;;;;;0.47;0.30;;;34.50;97.50;;;;;;5026833;28;20222;-53
2022/06/23 09:24:19;;;;;;;1.48;1.02;;;34.40;96.00;;;;;;5029980;28;20198;-54
2022/06/23 09:26:55;;;;;;;1.80;0.40;;;34.40;98.30;;;;;;4944783;28;20616;-53
2022/06/23 09:29:36;;;;;;;2.17;0.60;;;34.10;97.40;;;;;;4992396;28;20207;-53
2022/06/23 09:32:11;;;;;;;1.95;0.75;;;34.10;95.50;;;;;;4994739;28;20262;-53
2022/06/23 09:34:55;;;;;;;0.85;0.52;;;33.90;96.20;;;;;;5015769;28;20201;-53
2022/06/23 09:37:48;;;;;;;2.63;0.90;;;33.90;96.70;;;;;;4992413;28;20199;-53
2022/06/23 09:40:41;;;;;;;5.53;3.35;;;34.60;96.10;;;;;;4992164;28;20212;-53
2022/06/23 09:43:40;;;;;;;6.30;2.28;;;34.30;95.10;;;;;;4991831;28;20259;-53
2022/06/23 09:46:33;;;;;;;4.85;2.00;;;34.00;94.30;;;;;;4992091;28;20262;-53
2022/06/23 09:49:18;;;;;;;4.60;1.40;;;34.40;93.50;;;;;;4994787;28;20223;-54
2022/06/23 09:52:04;;;;;;;4.13;2.00;;;34.10;95.30;;;;;;5018148;28;20309;-53
2022/06/23 09:55:04;;;;;;;2.50;1.63;;;33.90;94.80;;;;;;5014651;28;20632;-54
2022/06/23 09:58:12;;;;;;;7.85;1.77;;;34.20;96.00;;;;;;4992290;28;20222;-53
2022/06/23 10:00:49;;;;;;;9.23;2.05;;;34.50;92.00;;;;;;5012822;28;20256;-53
2022/06/23 10:03:31;;;;;;;4.00;1.38;;;35.10;91.60;;;;;;5012020;28;20253;-53
2022/06/23 10:06:36;;;;;;;4.38;1.85;;;35.60;91.80;;;;;;5010810;28;20203;-53
2022/06/23 10:09:12;;;;;;;3.22;0.90;;;35.90;94.50;;;;;;4948567;28;20235;-53
2022/06/23 10:11:53;;;;;;;2.08;1.17;;;35.50;93.90;;;;;;5009635;28;20222;-53
2022/06/23 10:14:43;;;;;;;2.92;1.25;;;35.30;94.00;;;;;;5008202;28;20210;-53
2022/06/23 10:17:34;;;;;;;3.75;0.70;;;34.80;94.30;;;;;;5018897;28;20717;-53
2022/06/23 10:20:28;;;;;;;4.72;1.42;;;34.80;95.60;;;;;;5030138;28;20573;-53
2022/06/23 10:23:13;;;;;;;6.70;1.80;;;33.80;95.20;;;;;;5026449;28;20692;-53
2022/06/23 10:25:59;;;;;;;3.75;1.45;;;32.70;96.20;;;;;;5006157;28;20204;-53
2022/06/23 10:28:45;;;;;;;4.03;0.95;;;32.80;96.70;;;;;;5019221;28;20221;-53
2022/06/23 10:31:26;;;;;;;7.45;1.58;;;32.60;95.10;;;;;;5030336;28;20230;-53
2022/06/23 10:34:12;;;;;;;5.63;1.65;;;33.30;94.50;;;;;;5031003;28;20547;-53
2022/06/23 10:37:04;;;;;;;7.63;1.15;;;32.90;95.70;;;;;;5023972;28;20298;-53
2022/06/23 10:39:58;;;;;;;7.22;1.20;;;32.30;94.60;;;;;;4997983;28;20195;-53
2022/06/23 10:42:46;;;;;;;8.50;1.50;;;32.80;95.40;;;;;;5019906;28;20230;-53
2022/06/23 10:45:30;;;;;;;4.20;0.90;;;33.10;95.20;;;;;;5015911;28;20206;-53
2022/06/23 10:48:29;;;;;;;10.32;1.55;;;33.30;92.90;;;;;;5026153;28;20218;-53
2022/06/23 10:51:10;;;;;;;5.93;1.70;;;33.10;93.20;;;;;;5034291;28;20280;-53
2022/06/23 10:54:06;;;;;;;7.97;1.50;;;32.50;96.30;;;;;;5034239;28;20273;-53
2022/06/23 10:56:43;;;;;;;6.82;1.10;;;32.30;95.80;;;;;;5011877;28;20261;-52
2022/06/23 10:59:30;;;;;;;3.40;1.20;;;31.60;95.40;;;;;;5009996;28;20194;-52
2022/06/23 11:02:25;;;;;;;3.45;1.33;;;30.80;96.40;;;;;;5033398;28;20226;-50
2022/06/23 11:05:30;;;;;;;3.78;1.15;;;30.60;98.20;;;;;;5009981;28;20200;-49
2022/06/23 11:08:17;;;;;;;4.22;1.23;;;30.40;97.40;;;;;;4965595;28;20709;-50
2022/06/23 11:11:01;;;;;;;7.82;1.48;;;30.30;96.30;;;;;;5007790;28;20701;-50
2022/06/23 11:13:39;;;;;;;7.32;1.27;;;30.40;97.50;;;;;;5004944;28;20200;-50
2022/06/23 11:16:19;;;;;;;5.43;1.00;;;30.00;96.60;;;;;;5007666;28;20252;-50
2022/06/23 11:18:56;;;;;;;6.15;1.70;;;29.80;98.30;;;;;;5000438;28;20602;-50
2022/06/23 11:21:38;;;;;;;8.43;1.30;;;29.70;97.50;;;;;;4993067;28;21120;-50
2022/06/23 11:24:11;;;;;;;5.57;1.85;;;29.80;97.40;;;;;;5009012;28;20757;-50
2022/06/23 11:26:56;;;;;;;2.60;1.30;;;29.90;97.60;;;;;;5012161;28;20254;-50
2022/06/23 11:29:45;;;;;;;5.78;0.88;;;29.70;99.90;;;;;;5004407;28;20302;-49
2022/06/23 11:32:23;;;;;;;8.02;1.25;;;29.60;99.50;;;;;;5006829;28;20231;-50
2022/06/23 11:35:27;;;;;;;3.53;0.85;;;29.90;99.50;;;;;;5023656;23;20191;-56
2022/06/23 11:38:15;;;;;;;7.18;1.95;;;29.80;99.90;;;;;;4994845;28;20256;-56
2022/06/23 11:41:02;;;;;;;6.95;0.90;;;29.70;99.60;;;;;;5032622;28;20297;-55
2022/06/23 11:43:43;;;;;;;5.57;0.85;;;29.60;99.30;;;;;;5027267;28;20203;-55
2022/06/23 11:46:24;;;;;;;3.28;1.33;;;29.60;99.90;;;;;;5014074;28;20235;-55
2022/06/23 11:49:38;;;;;;;4.88;1.30;;;29.30;99.90;;;;;;5021370;28;20304;-56
2022/06/23 11:52:28;;;;;;;2.25;1.23;;;29.10;99.90;;;;;;5031903;28;20684;-56
2022/06/23 11:55:14;;;;;;;3.60;1.05;;;28.80;99.90;;;;;;5032616;28;20230;-55
2022/06/23 11:58:03;;;;;;;3.63;0.93;;;29.00;99.90;;;;;;5012956;28;20257;-57
2022/06/23 12:00:42;;;;;;;5.35;1.40;;;29.00;99.90;;;;;;5013759;28;20199;-57
2022/06/23 12:03:30;;;;;;;3.47;0.85;;;29.00;99.90;;;;;;5020225;28;20203;-57
2022/06/23 12:06:06;;;;;;;2.70;0.93;;;29.00;99.90;;;;;;5024333;28;20317;-57
2022/06/23 12:08:56;;;;;;;2.70;1.20;;;28.80;99.90;;;;;;5032275;28;20703;-57
2022/06/23 12:11:24;;;;;;;3.33;1.27;;;29.00;99.90;;;;;;5021891;28;20650;-57
2022/06/23 12:13:52;;;;;;;4.47;1.08;;;29.20;99.90;;;;;;5014943;28;20230;-57
2022/06/23 12:16:19;;;;;;;3.78;1.23;;;29.20;99.90;;;;;;5019813;28;20309;-57
2022/06/23 12:18:50;;;;;;;4.00;1.23;;;29.00;99.90;;;;;;5021342;28;20214;-57
2022/06/23 12:21:30;;;;;;;5.40;2.03;;;28.70;99.90;;;;;;5019270;28;20277;-57
2022/06/23 12:24:05;;;;;;;4.35;0.65;;;28.70;99.90;;;;;;5020350;28;20677;-57
2022/06/23 12:26:37;;;;;;;1.45;1.25;;;28.70;99.90;;;;;;5018793;28;20635;-57
2022/06/23 12:29:09;;;;;;;4.10;1.02;;;28.90;99.90;;;;;;5021678;28;20273;-57
2022/06/23 12:31:45;;;;;;;5.22;0.98;;;29.00;99.90;;;;;;5025739;28;20712;-57
2022/06/23 12:34:21;;;;;;;5.78;1.45;;;29.00;99.90;;;;;;5024231;28;20216;-57
2022/06/23 12:37:02;;;;;;;5.00;1.10;;;28.90;99.90;;;;;;5020110;28;20241;-57
2022/06/23 12:39:36;;;;;;;2.47;0.77;;;28.90;99.90;;;;;;5019109;28;20292;-57
2022/06/23 12:42:10;;;;;;;5.55;0.70;;;29.00;99.90;;;;;;5020419;28;20584;-57
2022/06/23 12:44:46;;;;;;;5.22;1.02;;;29.00;99.90;;;;;;5029377;28;20356;-58
2022/06/23 12:47:27;;;;;;;5.22;0.77;;;29.00;99.90;;;;;;5026297;28;20203;-57
2022/06/23 12:50:13;;;;;;;3.45;0.80;;;29.00;99.90;;;;;;5020947;28;20277;-57
2022/06/23 12:52:54;;;;;;;2.13;1.05;;;28.80;99.90;;;;;;5030888;28;20206;-57
2022/06/23 12:55:48;;;;;;;4.18;1.63;;;28.70;99.90;;;;;;5031561;28;20218;-57
2022/06/23 12:58:29;;;;;;;3.50;1.00;;;28.80;99.90;;;;;;5011316;28;20295;-57
2022/06/23 13:01:09;;;;;;;4.38;1.10;;;28.80;99.90;;;;;;5027718;28;20203;-57
2022/06/23 13:03:46;;;;;;;4.57;1.10;;;29.00;99.90;;;;;;5019751;28;20195;-57
2022/06/23 13:06:22;;;;;;;2.28;1.13;;;29.10;99.90;;;;;;5011823;28;20254;-57
2022/06/23 13:09:03;;;;;;;4.28;1.00;;;29.10;99.90;;;;;;5011142;28;20296;-54
2022/06/23 13:11:48;;;;;;;7.32;1.20;;;29.20;99.90;;;;;;5010230;28;20665;-57
2022/06/23 13:14:19;;;;;;;3.47;1.15;;;29.10;99.90;;;;;;5023814;28;20305;-57
2022/06/23 13:16:55;;;;;;;3.22;0.80;;;29.20;99.90;;;;;;5016700;28;20223;-57
2022/06/23 13:19:29;;;;;;;3.22;0.90;;;29.20;99.90;;;;;;5010991;28;20687;-56
2022/06/23 13:22:05;;;;;;;5.47;1.23;;;29.10;99.90;;;;;;5015310;28;20199;-57
2022/06/23 13:24:35;;;;;;;4.07;1.08;;;29.00;99.90;;;;;;5023929;28;20201;-57
2022/06/23 13:27:07;;;;;;;5.50;0.77;;;29.10;99.90;;;;;;5013136;28;20195;-57
2022/06/23 13:29:40;;;;;;;3.58;1.02;;;29.20;99.90;;;;;;5025595;28;20260;-57
2022/06/23 13:32:16;;;;;;;5.45;1.00;;;29.00;99.90;;;;;;5013283;28;20696;-58
2022/06/23 13:34:53;;;;;;;3.70;1.13;;;29.00;99.90;;;;;;5025848;28;20614;-58
2022/06/23 13:37:26;;;;;;;5.07;1.23;;;29.00;99.90;;;;;;5029140;28;20260;-58
2022/06/23 13:40:01;;;;;;;3.33;1.05;;;29.20;99.90;;;;;;5029010;28;20281;-57
2022/06/23 13:42:32;;;;;;;6.40;1.15;;;29.20;99.90;;;;;;5026689;28;20225;-57
2022/06/23 13:45:06;;;;;;;6.90;1.00;;;29.20;99.90;;;;;;5010571;28;20310;-57